Time;durP1;ratioP1;P1;durP2;ratioP2;P2;SDS_P1;SDS_P2;PMS_P1;PMS_P2;Temp;Humidity;BMP_temperature;BMP_pressure;BME280_temperature;BME280_humidity;BME280_pressure;Samples;Min_cycle;Max_cycle;Signal;HPM_P1;HPM_P2
2023/04/27 00:02:08;;;;;;;;;;;;;;;0.69;75.70;100504.05;104758;276;106268;-54
2023/04/27 00:04:40;;;;;;;;;;;;;;;0.68;75.96;100506.29;104375;276;114935;-55
2023/04/27 00:07:12;;;;;;;;;;;;;;;0.67;75.92;100506.86;104755;276;95351;-55
2023/04/27 00:09:44;;;;;;;;;;;;;;;0.69;76.03;100513.29;104824;276;98012;-53
2023/04/27 00:12:16;;;;;;;;;;;;;;;0.71;76.03;100511.35;104386;276;121077;-53
2023/04/27 00:14:49;;;;;;;;;;;;;;;0.71;76.20;100511.16;104402;276;105591;-55
2023/04/27 00:17:21;;;;;;;;;;;;;;;0.73;76.10;100509.97;104379;276;114891;-55
2023/04/27 00:19:54;;;;;;;;;;;;;;;0.72;76.19;100508.23;104408;276;95425;-53
2023/04/27 00:22:26;;;;;;;;;;;;;;;0.71;76.18;100507.83;104822;276;97793;-53
2023/04/27 00:24:58;;;;;;;;;;;;;;;0.73;76.34;100513.48;104420;276;120184;-54
2023/04/27 00:27:30;;;;;;;;;;;;;;;0.73;76.35;100508.56;104417;276;105628;-54
2023/04/27 00:30:03;;;;;;;;;;;;;;;0.69;76.31;100510.10;104805;276;113201;-53
2023/04/27 00:32:35;;;;;;;;;;;;;;;0.64;76.30;100513.02;104362;276;91877;-53
2023/04/27 00:35:09;;;;;;;;;;;;;;;0.58;76.22;100515.39;104812;276;96328;-54
2023/04/27 00:37:41;;;;;;;;;;;;;;;0.53;76.45;100515.13;104776;276;119292;-54
2023/04/27 00:40:14;;;;;;;;;;;;;;;0.47;76.43;100511.68;104365;276;106110;-55
2023/04/27 00:42:46;;;;;;;;;;;;;;;0.39;76.47;100513.02;104388;276;114855;-55
2023/04/27 00:45:18;;;;;;;;;;;;;;;0.32;76.58;100518.57;104785;276;95054;-53
2023/04/27 00:47:51;;;;;;;;;;;;;;;0.26;76.82;100520.11;104396;276;98163;-53
2023/04/27 00:50:27;;;;;;;;;;;;;;;0.28;76.88;100523.33;104406;276;119519;-54
2023/04/27 00:53:00;;;;;;;;;;;;;;;0.28;77.01;100528.08;104382;276;105870;-54
2023/04/27 00:55:33;;;;;;;;;;;;;;;0.27;77.10;100524.98;104769;276;114484;-54
2023/04/27 00:58:05;;;;;;;;;;;;;;;0.26;77.20;100523.27;104053;277;95855;-54
2023/04/27 01:00:39;;;;;;;;;;;;;;;0.27;77.26;100526.09;104422;276;96499;-55
2023/04/27 01:03:11;;;;;;;;;;;;;;;0.26;77.42;100526.66;104362;276;120332;-55
2023/04/27 01:05:44;;;;;;;;;;;;;;;0.27;77.45;100534.70;104382;264;104679;-54
2023/04/27 01:08:16;;;;;;;;;;;;;;;0.27;77.53;100533.87;104749;276;113330;-54
2023/04/27 01:10:48;;;;;;;;;;;;;;;0.26;77.60;100534.98;104366;276;95610;-53
2023/04/27 01:13:21;;;;;;;;;;;;;;;0.26;77.61;100534.78;104410;276;96371;-53
2023/04/27 01:15:53;;;;;;;;;;;;;;;0.24;77.59;100534.79;104766;276;120442;-54
2023/04/27 01:18:25;;;;;;;;;;;;;;;0.23;77.73;100532.06;104784;276;104700;-54
2023/04/27 01:20:57;;;;;;;;;;;;;;;0.24;77.73;100536.39;104769;276;112914;-54
2023/04/27 01:23:29;;;;;;;;;;;;;;;0.27;77.83;100540.05;104350;276;96744;-54
2023/04/27 01:26:01;;;;;;;;;;;;;;;0.27;77.77;100541.45;104793;276;97540;-55
2023/04/27 01:28:34;;;;;;;;;;;;;;;0.25;77.78;100543.04;103727;277;475046;-55
2023/04/27 01:31:06;;;;;;;;;;;;;;;0.19;77.91;100544.58;104303;276;105227;-55
2023/04/27 01:33:38;;;;;;;;;;;;;;;0.14;77.90;100543.88;104779;276;111939;-54
2023/04/27 01:36:11;;;;;;;;;;;;;;;0.12;78.06;100543.75;104761;276;93294;-54
2023/04/27 01:38:44;;;;;;;;;;;;;;;0.12;78.05;100542.15;104411;276;96752;-53
2023/04/27 01:41:16;;;;;;;;;;;;;;;0.10;78.05;100540.51;104362;276;121080;-53
2023/04/27 01:43:48;;;;;;;;;;;;;;;0.05;78.01;100540.02;104368;276;105680;-53
2023/04/27 01:46:20;;;;;;;;;;;;;;;0.00;78.13;100538.09;104334;276;114139;-53
2023/04/27 01:48:52;;;;;;;;;;;;;;;-0.04;78.09;100542.16;104367;276;93952;-53
2023/04/27 01:51:25;;;;;;;;;;;;;;;-0.09;78.08;100542.16;104100;276;96930;-53
2023/04/27 01:53:57;;;;;;;;;;;;;;;-0.15;78.18;100546.17;104776;276;120339;-55
2023/04/27 01:56:29;;;;;;;;;;;;;;;-0.21;78.37;100549.28;104343;276;105404;-55
2023/04/27 01:59:01;;;;;;;;;;;;;;;-0.25;78.35;100550.14;104363;276;113577;-53
2023/04/27 02:01:33;;;;;;;;;;;;;;;-0.29;78.53;100552.58;104746;276;96284;-53
2023/04/27 02:04:05;;;;;;;;;;;;;;;-0.29;78.69;100556.66;104355;276;97965;-53
2023/04/27 02:06:37;;;;;;;;;;;;;;;-0.30;78.81;100556.52;104339;276;121588;-53
2023/04/27 02:09:10;;;;;;;;;;;;;;;-0.29;79.03;100553.59;104334;276;105308;-54
2023/04/27 02:11:42;;;;;;;;;;;;;;;-0.28;78.96;100554.98;104337;276;112651;-54
2023/04/27 02:14:14;;;;;;;;;;;;;;;-0.28;79.03;100552.15;104743;280;95578;-54
2023/04/27 02:16:46;;;;;;;;;;;;;;;-0.25;79.02;100552.64;104068;278;96340;-54
2023/04/27 02:19:18;;;;;;;;;;;;;;;-0.21;79.23;100550.52;104295;276;119282;-54
2023/04/27 02:21:51;;;;;;;;;;;;;;;-0.17;79.17;100546.88;104329;276;105695;-54
2023/04/27 02:24:23;;;;;;;;;;;;;;;-0.13;79.26;100547.83;104743;276;113579;-54
2023/04/27 02:26:56;;;;;;;;;;;;;;;-0.07;79.31;100546.11;104036;276;95925;-54
2023/04/27 02:29:31;;;;;;;;;;;;;;;0.02;79.17;100547.14;104367;276;97791;-53
2023/04/27 02:32:04;;;;;;;;;;;;;;;0.05;79.36;100550.83;104760;280;120617;-53
2023/04/27 02:34:36;;;;;;;;;;;;;;;0.06;79.27;100549.17;104356;276;106344;-53
2023/04/27 02:37:08;;;;;;;;;;;;;;;0.06;79.32;100547.22;104732;276;115040;-53
2023/04/27 02:39:40;;;;;;;;;;;;;;;0.05;79.26;100551.35;104762;276;93274;-56
2023/04/27 02:42:12;;;;;;;;;;;;;;;0.06;79.23;100556.90;104764;276;96901;-55
2023/04/27 02:44:44;;;;;;;;;;;;;;;0.08;79.36;100559.25;104328;276;121175;-53
2023/04/27 02:47:17;;;;;;;;;;;;;;;0.04;79.36;100563.13;104327;276;104845;-53
2023/04/27 02:49:49;;;;;;;;;;;;;;;-0.03;79.35;100564.03;104317;276;114274;-53
2023/04/27 02:52:21;;;;;;;;;;;;;;;-0.10;79.38;100560.48;104313;276;93509;-53
2023/04/27 02:54:53;;;;;;;;;;;;;;;-0.16;79.38;100560.60;104342;276;96625;-54
2023/04/27 02:57:25;;;;;;;;;;;;;;;-0.22;79.54;100561.96;104317;276;119846;-54
2023/04/27 02:59:58;;;;;;;;;;;;;;;-0.28;79.59;100563.48;104807;276;104759;-55
2023/04/27 03:02:30;;;;;;;;;;;;;;;-0.29;79.62;100561.64;104305;264;114541;-55
2023/04/27 03:05:03;;;;;;;;;;;;;;;-0.30;79.75;100559.41;104338;276;95010;-53
2023/04/27 03:07:36;;;;;;;;;;;;;;;-0.30;79.78;100561.88;104412;276;96384;-53
2023/04/27 03:10:09;;;;;;;;;;;;;;;-0.30;79.96;100563.31;104788;276;119268;-54
2023/04/27 03:12:41;;;;;;;;;;;;;;;-0.29;79.91;100565.84;104388;276;104742;-55
2023/04/27 03:15:13;;;;;;;;;;;;;;;-0.27;80.00;100561.95;104387;280;116288;-53
2023/04/27 03:17:48;;;;;;;;;;;;;;;-0.27;80.14;100562.29;104737;276;95782;-53
2023/04/27 03:20:21;;;;;;;;;;;;;;;-0.23;80.15;100563.83;104402;276;97866;-53
2023/04/27 03:22:53;;;;;;;;;;;;;;;-0.19;80.18;100561.34;104802;276;119338;-53
2023/04/27 03:25:25;;;;;;;;;;;;;;;-0.18;80.26;100558.27;104346;276;105644;-53
2023/04/27 03:27:58;;;;;;;;;;;;;;;-0.13;80.33;100563.56;104777;276;115466;-53
2023/04/27 03:30:30;;;;;;;;;;;;;;;-0.05;80.37;100564.73;104756;276;96546;-54
2023/04/27 03:33:02;;;;;;;;;;;;;;;0.01;80.33;100567.20;104309;276;97167;-55
2023/04/27 03:35:35;;;;;;;;;;;;;;;0.05;80.41;100563.93;104352;276;118274;-55
2023/04/27 03:38:07;;;;;;;;;;;;;;;0.11;80.32;100568.59;104333;276;104549;-55
2023/04/27 03:40:39;;;;;;;;;;;;;;;0.16;80.41;100570.68;104338;276;114023;-53
2023/04/27 03:43:11;;;;;;;;;;;;;;;0.24;80.52;100575.16;104756;264;94250;-53
2023/04/27 03:45:43;;;;;;;;;;;;;;;0.35;80.47;100579.45;104795;276;98011;-55
2023/04/27 03:48:16;;;;;;;;;;;;;;;0.40;80.57;100574.41;104336;276;120236;-55
2023/04/27 03:50:48;;;;;;;;;;;;;;;0.44;80.57;100584.54;104068;278;105669;-55
2023/04/27 03:53:21;;;;;;;;;;;;;;;0.49;80.46;100588.79;104290;276;113655;-55
2023/04/27 03:55:53;;;;;;;;;;;;;;;0.55;80.58;100593.04;104073;278;93089;-53
2023/04/27 03:58:25;;;;;;;;;;;;;;;0.69;80.69;100594.61;104329;276;97965;-53
2023/04/27 04:00:57;;;;;;;;;;;;;;;1.52;81.07;100597.66;104305;276;118583;-53
2023/04/27 04:03:30;;;;;;;;;;;;;;;2.94;80.68;100598.89;104336;276;105169;-53
2023/04/27 04:06:02;;;;;;;;;;;;;;;3.53;79.79;100593.89;104307;276;114236;-53
2023/04/27 04:08:37;;;;;;;;;;;;;;;3.73;79.23;100591.36;104319;276;93210;-53
2023/04/27 04:11:09;;;;;;;;;;;;;;;3.72;78.80;100587.38;104329;276;96568;-53
2023/04/27 04:13:41;;;;;;;;;;;;;;;3.71;78.53;100591.33;104805;276;120128;-54
2023/04/27 04:16:13;;;;;;;;;;;;;;;3.97;78.47;100595.86;104294;276;105849;-56
2023/04/27 04:18:46;;;;;;;;;;;;;;;3.98;77.93;100596.08;104764;276;114750;-55
2023/04/27 04:21:18;;;;;;;;;;;;;;;4.07;77.54;100600.44;104786;276;95578;-55
2023/04/27 04:23:50;;;;;;;;;;;;;;;4.17;77.70;100598.05;104285;276;97144;-54
2023/04/27 04:26:22;;;;;;;;;;;;;;;4.25;77.67;100599.13;104769;276;120417;-54
2023/04/27 04:28:55;;;;;;;;;;;;;;;4.28;77.32;100597.41;104327;276;105699;-53
2023/04/27 04:31:28;;;;;;;;;;;;;;;4.67;77.16;100599.14;104321;276;113968;-53
2023/04/27 04:34:00;;;;;;;;;;;;;;;5.56;76.67;100595.67;104320;276;95400;-54
2023/04/27 04:36:33;;;;;;;;;;;;;;;6.97;75.97;100584.67;104353;276;97201;-54
2023/04/27 04:39:05;;;;;;;;;;;;;;;8.68;74.67;100587.63;104368;276;121592;-54
2023/04/27 04:41:38;;;;;;;;;;;;;;;10.36;73.24;100585.07;104325;276;104359;-55
2023/04/27 04:44:10;;;;;;;;;;;;;;;11.52;71.81;100583.95;104320;276;114909;-53
2023/04/27 04:46:42;;;;;;;;;;;;;;;12.59;70.04;100584.72;104776;276;94943;-55
2023/04/27 04:49:14;;;;;;;;;;;;;;;13.53;68.00;100582.73;104411;276;96804;-55
2023/04/27 04:51:47;;;;;;;;;;;;;;;14.34;66.47;100589.20;104789;276;119313;-56
2023/04/27 04:54:20;;;;;;;;;;;;;;;15.05;64.94;100584.92;104437;276;106924;-54
2023/04/27 04:56:52;;;;;;;;;;;;;;;15.64;62.94;100585.81;104375;276;113763;-54
2023/04/27 04:59:24;;;;;;;;;;;;;;;16.18;61.28;100586.35;104755;276;95409;-54
2023/04/27 05:01:56;;;;;;;;;;;;;;;16.56;59.75;100587.17;104785;276;97091;-54
2023/04/27 05:04:28;;;;;;;;;;;;;;;17.16;57.65;100588.54;104509;276;119758;-54
2023/04/27 05:07:01;;;;;;;;;;;;;;;17.43;55.94;100582.25;104413;276;105397;-56
2023/04/27 05:09:33;;;;;;;;;;;;;;;17.29;54.33;100593.73;104399;276;114953;-54
2023/04/27 05:12:06;;;;;;;;;;;;;;;16.90;54.03;100601.67;104777;276;94367;-55
2023/04/27 05:14:38;;;;;;;;;;;;;;;16.91;53.99;100603.56;104795;276;97496;-55
2023/04/27 05:17:11;;;;;;;;;;;;;;;16.68;53.51;100608.40;104781;276;121198;-55
2023/04/27 05:19:43;;;;;;;;;;;;;;;16.91;52.34;100610.78;104374;276;105011;-55
2023/04/27 05:22:15;;;;;;;;;;;;;;;17.41;51.17;100606.20;104356;276;114467;-57
2023/04/27 05:24:48;;;;;;;;;;;;;;;18.02;50.12;100608.62;104798;276;94560;-57
2023/04/27 05:27:20;;;;;;;;;;;;;;;18.51;48.74;100611.27;104096;278;97886;-55
2023/04/27 05:29:52;;;;;;;;;;;;;;;18.63;48.39;100613.27;104777;276;119551;-56
2023/04/27 05:32:26;;;;;;;;;;;;;;;19.46;48.19;100610.91;104386;276;105396;-56
2023/04/27 05:34:59;;;;;;;;;;;;;;;19.76;46.66;100608.00;104047;276;115685;-56
2023/04/27 05:37:31;;;;;;;;;;;;;;;19.38;45.92;100613.92;104329;276;94113;-57
2023/04/27 05:40:04;;;;;;;;;;;;;;;18.94;45.73;100617.87;104384;276;97880;-54
2023/04/27 05:42:36;;;;;;;;;;;;;;;18.96;45.34;100615.02;104365;276;119216;-54
2023/04/27 05:45:10;;;;;;;;;;;;;;;19.23;45.31;100616.60;104383;276;104187;-56
2023/04/27 05:47:42;;;;;;;;;;;;;;;19.45;44.46;100617.11;104340;276;112304;-56
2023/04/27 05:50:15;;;;;;;;;;;;;;;19.87;44.05;100615.38;104338;276;92928;-54
2023/04/27 05:52:47;;;;;;;;;;;;;;;20.66;43.50;100614.79;104384;276;98048;-54
2023/04/27 05:55:19;;;;;;;;;;;;;;;21.22;42.36;100607.33;104382;276;118778;-55
2023/04/27 05:57:54;;;;;;;;;;;;;;;21.56;41.89;100609.04;104352;276;105080;-55
2023/04/27 06:00:26;;;;;;;;;;;;;;;22.16;41.68;100612.33;104320;276;114331;-55
2023/04/27 06:03:00;;;;;;;;;;;;;;;22.16;41.54;100617.11;104370;276;93452;-55
2023/04/27 06:05:33;;;;;;;;;;;;;;;22.72;39.85;100613.71;104343;276;97212;-56
2023/04/27 06:08:05;;;;;;;;;;;;;;;23.47;37.47;100615.70;104351;276;120468;-56
2023/04/27 06:10:38;;;;;;;;;;;;;;;23.70;37.18;100614.55;104799;276;106269;-55
2023/04/27 06:13:11;;;;;;;;;;;;;;;23.72;37.56;100614.78;104328;276;114630;-54
2023/04/27 06:15:43;;;;;;;;;;;;;;;24.21;36.95;100612.66;104778;276;94253;-55
2023/04/27 06:18:16;;;;;;;;;;;;;;;24.92;35.27;100609.49;104352;276;97946;-56
2023/04/27 06:20:48;;;;;;;;;;;;;;;25.44;34.09;100608.12;104384;276;121210;-56
2023/04/27 06:23:20;;;;;;;;;;;;;;;25.30;34.44;100609.41;104385;276;105999;-56
2023/04/27 06:25:53;;;;;;;;;;;;;;;25.31;34.86;100609.64;104121;277;114315;-56
2023/04/27 06:28:26;;;;;;;;;;;;;;;25.54;34.46;100610.91;104347;276;94974;-58
2023/04/27 06:30:58;;;;;;;;;;;;;;;25.97;34.43;100611.14;104361;276;96288;-55
2023/04/27 06:33:31;;;;;;;;;;;;;;;26.20;33.54;100614.02;104351;276;122533;-55
2023/04/27 06:36:04;;;;;;;;;;;;;;;26.14;33.78;100616.05;104346;276;103438;-57
2023/04/27 06:38:37;;;;;;;;;;;;;;;26.16;33.00;100618.20;104334;276;113027;-57
2023/04/27 06:41:09;;;;;;;;;;;;;;;26.28;33.03;100618.34;104324;276;94254;-58
2023/04/27 06:43:41;;;;;;;;;;;;;;;26.47;32.46;100622.64;104356;276;96665;-55
2023/04/27 06:46:13;;;;;;;;;;;;;;;26.82;31.32;100623.88;104347;276;121029;-55
2023/04/27 06:48:46;;;;;;;;;;;;;;;27.16;30.75;100622.72;104771;276;104892;-57
2023/04/27 06:51:18;;;;;;;;;;;;;;;26.74;30.53;100622.83;104360;276;112564;-58
2023/04/27 06:53:51;;;;;;;;;;;;;;;26.01;30.81;100620.48;104337;276;94444;-55
2023/04/27 06:56:23;;;;;;;;;;;;;;;25.14;31.49;100623.17;104334;276;97447;-55
2023/04/27 06:58:56;;;;;;;;;;;;;;;24.86;31.22;100624.86;104346;276;119990;-55
2023/04/27 07:01:28;;;;;;;;;;;;;;;24.01;31.19;100625.09;104356;276;104539;-55
2023/04/27 07:04:01;;;;;;;;;;;;;;;23.29;31.03;100627.08;104796;276;114080;-57
2023/04/27 07:06:33;;;;;;;;;;;;;;;22.81;31.40;100627.36;104790;276;93107;-58
2023/04/27 07:09:05;;;;;;;;;;;;;;;23.04;31.43;100627.90;104782;276;97889;-57
2023/04/27 07:11:37;;;;;;;;;;;;;;;23.92;31.46;100625.44;104788;276;119211;-58
2023/04/27 07:14:10;;;;;;;;;;;;;;;24.71;31.25;100627.23;104427;276;106045;-57
2023/04/27 07:16:43;;;;;;;;;;;;;;;25.42;31.13;100634.95;104387;276;113222;-55
2023/04/27 07:19:15;;;;;;;;;;;;;;;26.31;30.35;100634.98;104385;276;95223;-57
2023/04/27 07:21:47;;;;;;;;;;;;;;;26.78;30.26;100628.84;104798;276;96530;-57
2023/04/27 07:24:20;;;;;;;;;;;;;;;26.70;30.03;100631.22;104763;276;119437;-55
2023/04/27 07:26:53;;;;;;;;;;;;;;;26.93;29.25;100636.41;104348;276;105449;-55
2023/04/27 07:29:26;;;;;;;;;;;;;;;26.94;28.91;100639.84;104289;276;114333;-57
2023/04/27 07:31:59;;;;;;;;;;;;;;;27.24;28.73;100643.55;104277;276;94950;-57
2023/04/27 07:34:31;;;;;;;;;;;;;;;27.61;28.64;100640.92;104340;276;97894;-58
2023/04/27 07:37:04;;;;;;;;;;;;;;;27.60;27.06;100640.15;104319;276;121254;-58
2023/04/27 07:39:36;;;;;;;;;;;;;;;27.38;28.24;100641.34;104141;277;104577;-55
2023/04/27 07:42:08;;;;;;;;;;;;;;;27.16;26.86;100638.02;104292;265;114501;-55
2023/04/27 07:44:41;;;;;;;;;;;;;;;27.19;27.28;100637.50;104330;276;94335;-55
2023/04/27 07:47:13;;;;;;;;;;;;;;;26.68;27.83;100634.50;104341;276;98173;-55
2023/04/27 07:49:46;;;;;;;;;;;;;;;26.94;28.10;100634.46;104797;276;121997;-55
2023/04/27 07:52:19;;;;;;;;;;;;;;;27.15;28.19;100636.30;104771;276;104014;-55
2023/04/27 07:54:51;;;;;;;;;;;;;;;26.90;28.05;100632.43;104766;276;112479;-56
2023/04/27 07:57:24;;;;;;;;;;;;;;;26.86;27.89;100634.14;104340;276;94993;-56
2023/04/27 07:59:56;;;;;;;;;;;;;;;26.37;27.91;100636.71;104801;276;96797;-55
2023/04/27 08:02:30;;;;;;;;;;;;;;;25.77;27.75;100634.02;104776;276;120338;-55
2023/04/27 08:05:03;;;;;;;;;;;;;;;26.16;27.58;100633.52;104323;276;106306;-62
2023/04/27 08:07:36;;;;;;;;;;;;;;;26.50;27.82;100632.64;104304;276;113449;-64
2023/04/27 08:10:10;;;;;;;;;;;;;;;26.33;27.42;100633.15;104282;276;94194;-61
2023/04/27 08:12:42;;;;;;;;;;;;;;;25.05;27.47;100637.45;104838;276;96642;-61
2023/04/27 08:15:15;;;;;;;;;;;;;;;23.60;28.12;100645.07;104336;276;119721;-63
2023/04/27 08:17:47;;;;;;;;;;;;;;;22.89;28.49;100645.64;104337;280;106079;-61
2023/04/27 08:20:20;;;;;;;;;;;;;;;21.42;29.42;100651.17;104808;276;114181;-61
2023/04/27 08:22:54;;;;;;;;;;;;;;;20.42;30.45;100650.61;104384;276;94595;-62
2023/04/27 08:25:26;;;;;;;;;;;;;;;20.21;31.50;100651.20;104458;276;97729;-62
2023/04/27 08:27:59;;;;;;;;;;;;;;;19.77;31.46;100653.80;104425;276;119869;-61
2023/04/27 08:30:31;;;;;;;;;;;;;;;19.29;31.33;100655.64;104382;276;105323;-63
2023/04/27 08:33:04;;;;;;;;;;;;;;;19.23;31.41;100650.95;104410;276;114803;-62
2023/04/27 08:35:36;;;;;;;;;;;;;;;18.65;31.63;100653.38;104394;276;94747;-56
2023/04/27 08:38:09;;;;;;;;;;;;;;;18.14;31.88;100654.09;104422;284;97315;-56
2023/04/27 08:40:45;;;;;;;;;;;;;;;17.76;32.70;100654.97;104396;276;120762;-55
2023/04/27 08:43:18;;;;;;;;;;;;;;;18.01;33.57;100651.63;104399;276;105047;-54
2023/04/27 08:45:51;;;;;;;;;;;;;;;17.69;33.76;100657.09;104383;276;114565;-56
2023/04/27 08:48:24;;;;;;;;;;;;;;;17.02;33.84;100658.37;104814;276;93647;-55
2023/04/27 08:50:57;;;;;;;;;;;;;;;16.45;34.21;100656.37;104083;276;97975;-56
2023/04/27 08:53:30;;;;;;;;;;;;;;;15.96;34.60;100657.64;104805;276;119242;-56
2023/04/27 08:56:04;;;;;;;;;;;;;;;15.65;35.14;100658.42;104785;276;105352;-55
2023/04/27 08:58:40;;;;;;;;;;;;;;;15.42;35.52;100662.30;104756;276;114936;-55
2023/04/27 09:01:12;;;;;;;;;;;;;;;15.38;36.27;100662.39;104337;276;93475;-56
2023/04/27 09:03:45;;;;;;;;;;;;;;;15.52;36.23;100658.39;104365;276;97868;-55
2023/04/27 09:06:17;;;;;;;;;;;;;;;15.51;36.15;100659.30;104387;276;118635;-55
2023/04/27 09:08:50;;;;;;;;;;;;;;;15.33;36.25;100664.36;104428;276;105339;-57
2023/04/27 09:11:32;;;;;;;;;;;;;;;15.00;36.69;100672.60;104355;276;114356;-57
2023/04/27 09:14:16;;;;;;;;;;;;;;;14.67;36.80;100672.88;104372;276;92983;-56
2023/04/27 09:16:56;;;;;;;;;;;;;;;14.43;36.69;100670.98;104786;276;98014;-56
2023/04/27 09:19:30;;;;;;;;;;;;;;;14.09;36.94;100673.55;104357;276;120455;-57
2023/04/27 09:22:09;;;;;;;;;;;;;;;13.90;37.56;100673.51;104409;276;103612;-57
2023/04/27 09:24:52;;;;;;;;;;;;;;;14.02;37.99;100670.95;104380;276;114075;-55
2023/04/27 09:27:24;;;;;;;;;;;;;;;14.12;37.66;100668.64;104015;276;481220;-55
2023/04/27 09:29:56;;;;;;;;;;;;;;;14.11;38.19;100666.59;104391;276;98013;-55
2023/04/27 09:32:28;;;;;;;;;;;;;;;14.13;38.29;100664.13;104787;276;119794;-55
2023/04/27 09:35:01;;;;;;;;;;;;;;;14.30;38.51;100665.13;104412;276;104742;-55
2023/04/27 09:37:34;;;;;;;;;;;;;;;14.31;38.51;100669.58;104356;276;114433;-55
2023/04/27 09:40:08;;;;;;;;;;;;;;;14.25;38.74;100666.77;104778;276;94342;-55
2023/04/27 09:42:40;;;;;;;;;;;;;;;14.21;38.57;100663.13;104373;276;95031;-55
2023/04/27 09:45:13;;;;;;;;;;;;;;;14.19;38.92;100662.30;104376;276;119175;-56
2023/04/27 09:47:46;;;;;;;;;;;;;;;14.14;39.10;100661.33;104357;276;105285;-56
2023/04/27 09:50:18;;;;;;;;;;;;;;;14.12;39.27;100657.89;104360;276;114480;-55
2023/04/27 09:52:50;;;;;;;;;;;;;;;14.24;39.46;100660.92;104778;276;95159;-55
2023/04/27 09:55:26;;;;;;;;;;;;;;;14.34;39.18;100664.98;104804;276;96316;-55
2023/04/27 09:58:09;;;;;;;;;;;;;;;14.26;39.33;100667.48;104374;276;120695;-55
2023/04/27 10:01:00;;;;;;;;;;;;;;;14.28;39.23;100669.09;104369;276;106274;-55
2023/04/27 10:03:39;;;;;;;;;;;;;;;14.08;39.14;100664.41;104338;276;113783;-56
2023/04/27 10:06:47;;;;;;;;;;;;;;;14.00;39.10;100664.73;104380;276;95252;-55
2023/04/27 10:09:23;;;;;;;;;;;;;;;13.86;39.22;100665.36;104315;276;97300;-56
2023/04/27 10:11:56;;;;;;;;;;;;;;;13.91;39.63;100664.23;104372;276;120730;-56
2023/04/27 10:14:28;;;;;;;;;;;;;;;13.98;39.75;100667.52;104367;276;105424;-55
2023/04/27 10:17:01;;;;;;;;;;;;;;;14.02;39.93;100664.02;104763;276;115064;-55
2023/04/27 10:19:33;;;;;;;;;;;;;;;14.09;39.53;100666.29;104350;276;94162;-54
2023/04/27 10:22:06;;;;;;;;;;;;;;;14.11;39.13;100668.83;104340;276;97331;-54
2023/04/27 10:24:40;;;;;;;;;;;;;;;14.13;39.53;100672.91;104773;276;120750;-56
2023/04/27 10:27:17;;;;;;;;;;;;;;;14.22;39.39;100671.21;104793;276;105346;-57
2023/04/27 10:29:50;;;;;;;;;;;;;;;14.51;39.30;100663.29;104334;276;115417;-55
2023/04/27 10:32:24;;;;;;;;;;;;;;;14.83;38.59;100662.16;104322;276;94699;-55
2023/04/27 10:35:06;;;;;;;;;;;;;;;15.03;38.78;100660.38;104333;276;96186;-55
2023/04/27 10:37:42;;;;;;;;;;;;;;;15.14;38.82;100659.89;104313;276;120847;-55
2023/04/27 10:40:16;;;;;;;;;;;;;;;15.29;38.85;100665.23;104366;276;104842;-56
2023/04/27 10:42:49;;;;;;;;;;;;;;;15.73;38.99;100657.72;104323;276;113697;-56
2023/04/27 10:45:31;;;;;;;;;;;;;;;15.76;38.04;100659.30;104340;276;93368;-56
2023/04/27 10:48:03;;;;;;;;;;;;;;;15.40;38.19;100662.35;104325;276;96899;-56
2023/04/27 10:50:35;;;;;;;;;;;;;;;14.94;38.33;100669.84;104316;276;120650;-55
2023/04/27 10:53:08;;;;;;;;;;;;;;;14.46;38.52;100676.37;104794;276;106053;-55
2023/04/27 10:55:41;;;;;;;;;;;;;;;14.13;38.81;100673.07;104329;276;113724;-56
2023/04/27 10:58:13;;;;;;;;;;;;;;;13.70;39.27;100674.86;104770;276;92776;-57
2023/04/27 11:00:45;;;;;;;;;;;;;;;13.35;39.45;100679.03;104806;276;96837;-54
2023/04/27 11:03:19;;;;;;;;;;;;;;;13.09;39.37;100685.54;104760;276;120942;-54
2023/04/27 11:06:01;;;;;;;;;;;;;;;12.87;39.26;100691.40;104098;278;108141;-56
2023/04/27 11:08:43;;;;;;;;;;;;;;;12.61;38.94;100691.06;104374;276;114744;-56
2023/04/27 11:11:18;;;;;;;;;;;;;;;12.47;38.71;100694.37;104764;276;94646;-56
2023/04/27 11:13:51;;;;;;;;;;;;;;;12.28;38.86;100693.02;104371;276;97642;-55
2023/04/27 11:16:24;;;;;;;;;;;;;;;12.21;39.13;100694.69;104388;276;119840;-56
2023/04/27 11:18:57;;;;;;;;;;;;;;;12.17;39.31;100696.20;104068;278;103643;-63
2023/04/27 11:21:31;;;;;;;;;;;;;;;12.18;39.30;100695.41;104781;276;114145;-57
2023/04/27 11:24:08;;;;;;;;;;;;;;;12.21;39.45;100694.23;104797;276;94472;-55
2023/04/27 11:26:40;;;;;;;;;;;;;;;12.34;39.82;100696.62;104430;276;97760;-54
2023/04/27 11:29:14;;;;;;;;;;;;;;;12.47;39.74;100690.95;104359;276;120077;-55
2023/04/27 11:31:48;;;;;;;;;;;;;;;12.58;39.65;100689.41;104297;276;105090;-55
2023/04/27 11:34:21;;;;;;;;;;;;;;;12.83;39.81;100687.63;104294;276;113690;-54
2023/04/27 11:37:01;;;;;;;;;;;;;;;12.97;39.67;100690.82;104297;276;94287;-54
2023/04/27 11:39:37;;;;;;;;;;;;;;;13.18;39.44;100684.08;104806;276;97478;-55
2023/04/27 11:42:20;;;;;;;;;;;;;;;13.33;39.69;100684.52;104335;276;120909;-55
2023/04/27 11:44:56;;;;;;;;;;;;;;;13.52;39.39;100682.80;104347;276;105573;-55
2023/04/27 11:47:29;;;;;;;;;;;;;;;13.72;39.19;100680.84;104320;276;114085;-56
2023/04/27 11:50:03;;;;;;;;;;;;;;;13.98;39.23;100674.37;104794;276;93939;-55
2023/04/27 11:52:36;;;;;;;;;;;;;;;14.23;39.13;100676.64;104790;276;96355;-55
2023/04/27 11:55:14;;;;;;;;;;;;;;;14.49;39.01;100680.85;104340;276;119965;-55
2023/04/27 11:57:47;;;;;;;;;;;;;;;14.41;38.68;100683.36;104338;276;103331;-55
2023/04/27 12:00:21;;;;;;;;;;;;;;;14.10;37.59;100683.80;104346;276;113703;-54
2023/04/27 12:02:53;;;;;;;;;;;;;;;13.81;37.51;100686.34;104298;276;93849;-55
2023/04/27 12:05:26;;;;;;;;;;;;;;;13.55;37.62;100694.08;104350;276;97150;-53
2023/04/27 12:07:58;;;;;;;;;;;;;;;13.36;37.81;100692.52;104786;276;120281;-53
2023/04/27 12:10:30;;;;;;;;;;;;;;;13.04;37.70;100696.66;104355;276;105916;-56
2023/04/27 12:13:03;;;;;;;;;;;;;;;12.76;38.03;100694.61;104748;276;114122;-60
2023/04/27 12:15:35;;;;;;;;;;;;;;;12.64;38.25;100692.06;104341;276;92983;-54
2023/04/27 12:18:08;;;;;;;;;;;;;;;12.48;38.42;100691.58;104802;276;96214;-54
2023/04/27 12:20:40;;;;;;;;;;;;;;;12.32;38.72;100693.89;104798;276;121539;-55
2023/04/27 12:23:12;;;;;;;;;;;;;;;12.26;38.85;100691.38;104789;276;106045;-55
2023/04/27 12:25:44;;;;;;;;;;;;;;;12.29;39.38;100691.61;104787;280;114194;-55
2023/04/27 12:28:19;;;;;;;;;;;;;;;12.35;39.37;100689.99;104810;276;93072;-55
2023/04/27 12:30:51;;;;;;;;;;;;;;;12.59;39.58;100687.67;104803;276;96184;-57
2023/04/27 12:33:23;;;;;;;;;;;;;;;12.81;39.64;100687.48;104758;276;120435;-58
2023/04/27 12:35:55;;;;;;;;;;;;;;;13.14;39.28;100687.84;104362;276;105026;-54
2023/04/27 12:38:28;;;;;;;;;;;;;;;13.60;39.20;100680.91;104336;276;114781;-54
2023/04/27 12:41:02;;;;;;;;;;;;;;;13.90;38.84;100681.83;104787;276;94256;-54
2023/04/27 12:43:36;;;;;;;;;;;;;;;13.87;38.44;100683.27;104822;276;96290;-54
2023/04/27 12:46:09;;;;;;;;;;;;;;;13.75;38.23;100685.07;104349;276;118492;-54
2023/04/27 12:48:41;;;;;;;;;;;;;;;13.77;38.28;100682.44;104130;277;104291;-55
2023/04/27 12:51:15;;;;;;;;;;;;;;;13.86;38.31;100685.70;104338;276;114832;-54
2023/04/27 12:53:47;;;;;;;;;;;;;;;13.92;38.04;100686.55;104297;276;94269;-58
2023/04/27 12:56:20;;;;;;;;;;;;;;;14.00;38.07;100686.70;104399;276;97848;-56
2023/04/27 12:58:52;;;;;;;;;;;;;;;14.00;37.95;100682.95;104368;265;120931;-56
2023/04/27 13:01:26;;;;;;;;;;;;;;;13.85;37.90;100689.84;104791;276;106078;-57
2023/04/27 13:04:01;;;;;;;;;;;;;;;13.69;38.09;100695.45;104318;276;114471;-54